createdAt,value
2022-08-09T00:01:16.359Z,3.50
2022-08-09T00:04:06.091Z,3.22
2022-08-09T00:06:32.109Z,2.88
2022-08-09T00:09:00.971Z,3.22
2022-08-09T00:12:02.562Z,3.42
2022-08-09T00:14:22.106Z,3.08
2022-08-09T00:17:06.247Z,3.03
2022-08-09T00:19:33.987Z,3.30
2022-08-09T00:22:03.436Z,3.05
2022-08-09T00:24:32.218Z,3.05
2022-08-09T00:27:00.690Z,3.50
2022-08-09T00:30:10.220Z,3.03
2022-08-09T00:32:26.609Z,3.50
2022-08-09T00:34:56.480Z,3.45
2022-08-09T00:37:23.943Z,3.30
2022-08-09T00:40:10.228Z,3.70
2022-08-09T00:44:15.599Z,3.50
2022-08-09T00:45:26.556Z,3.70
2022-08-09T00:47:55.450Z,3.42
2022-08-09T00:50:26.442Z,3.38
2022-08-09T00:52:55.174Z,3.30
2022-08-09T00:56:04.084Z,3.58
2022-08-09T00:58:10.172Z,3.75
2022-08-09T01:00:43.825Z,3.47
2022-08-09T01:03:45.513Z,3.28
2022-08-09T01:06:22.262Z,3.67
2022-08-09T01:09:11.161Z,3.60
2022-08-09T01:11:57.045Z,3.75
2022-08-09T01:14:30.980Z,3.70
2022-08-09T01:17:22.355Z,3.50
2022-08-09T01:20:04.904Z,3.50
2022-08-09T01:22:59.585Z,3.63
2022-08-09T01:25:53.145Z,3.70
2022-08-09T01:28:26.011Z,3.40
2022-08-09T01:30:58.113Z,3.63
2022-08-09T01:33:29.891Z,3.70
2022-08-09T01:36:04.645Z,3.40
2022-08-09T01:38:38.374Z,3.33
2022-08-09T01:41:13.810Z,3.92
2022-08-09T01:43:50.148Z,3.78
2022-08-09T01:46:26.987Z,4.03
2022-08-09T01:48:59.821Z,3.85
2022-08-09T01:51:32.577Z,3.58
2022-08-09T01:54:03.943Z,3.90
2022-08-09T01:56:35.403Z,4.13
2022-08-09T01:59:09.241Z,4.68
2022-08-09T02:01:58.286Z,4.30
2022-08-09T02:04:26.599Z,4.53
2022-08-09T02:07:18.460Z,3.85
2022-08-09T02:10:11.184Z,4.00
2022-08-09T02:12:39.423Z,4.35
2022-08-09T02:15:11.938Z,4.10
2022-08-09T02:18:01.043Z,4.38
2022-08-09T02:20:45.463Z,4.30
2022-08-09T02:23:40.222Z,4.32
2022-08-09T02:26:25.291Z,4.47
2022-08-09T02:29:07.022Z,4.20
2022-08-09T02:31:40.740Z,4.45
2022-08-09T02:34:40.762Z,4.20
2022-08-09T02:37:11.936Z,4.43
2022-08-09T02:39:49.802Z,4.70
2022-08-09T02:42:33.792Z,4.93
2022-08-09T02:45:06.743Z,4.45
2022-08-09T02:47:57.559Z,4.78
2022-08-09T02:50:27.300Z,4.43
2022-08-09T02:53:05.285Z,4.60
2022-08-09T02:55:46.154Z,4.43
2022-08-09T02:58:35.362Z,4.70
2022-08-09T03:01:08.241Z,5.40
2022-08-09T03:04:16.603Z,5.80
2022-08-09T03:06:30.608Z,5.00
2022-08-09T03:08:59.253Z,5.05
2022-08-09T03:12:05.205Z,4.95
2022-08-09T03:14:18.135Z,5.43
2022-08-09T03:16:48.284Z,5.25
2022-08-09T03:19:58.232Z,5.38
2022-08-09T03:22:12.326Z,4.70
2022-08-09T03:24:58.286Z,5.85
2022-08-09T03:28:26.197Z,5.07
2022-08-09T03:30:28.122Z,5.53
2022-08-09T03:33:02.102Z,5.50
2022-08-09T03:36:13.892Z,5.57
2022-08-09T03:38:30.346Z,5.38
2022-08-09T03:40:59.139Z,5.50
2022-08-09T03:43:31.517Z,5.63
2022-08-09T03:46:04.515Z,5.60
2022-08-09T03:48:57.704Z,5.47
2022-08-09T03:51:57.325Z,5.78
2022-08-09T03:54:15.884Z,5.45
2022-08-09T03:56:46.602Z,5.72
2022-08-09T03:59:20.973Z,5.45
2022-08-09T04:01:59.334Z,5.80
2022-08-09T04:04:36.067Z,5.55
2022-08-09T04:07:06.804Z,6.22
2022-08-09T04:09:47.409Z,5.95
2022-08-09T04:12:47.764Z,6.13
2022-08-09T04:15:40.416Z,6.10
2022-08-09T04:18:07.038Z,6.00
2022-08-09T04:20:34.207Z,6.25
2022-08-09T04:23:01.853Z,5.80
2022-08-09T04:25:29.670Z,5.90
2022-08-09T04:27:59.811Z,5.90
2022-08-09T04:30:30.031Z,6.07
2022-08-09T04:32:57.422Z,6.35
2022-08-09T04:35:24.716Z,6.15
2022-08-09T04:37:56.566Z,5.38
2022-08-09T04:40:36.218Z,6.25
2022-08-09T04:43:05.575Z,6.47
2022-08-09T04:45:35.997Z,6.25
2022-08-09T04:48:20.137Z,6.30
2022-08-09T04:50:50.047Z,5.70
2022-08-09T04:53:17.640Z,6.57
2022-08-09T04:55:58.380Z,6.45
2022-08-09T04:58:32.910Z,6.10
2022-08-09T05:01:02.204Z,5.65
2022-08-09T05:03:42.559Z,6.35
2022-08-09T05:06:27.195Z,6.07
2022-08-09T05:09:00.474Z,6.00
2022-08-09T05:11:32.473Z,5.88
2022-08-09T05:16:43.655Z,5.97
2022-08-09T05:19:25.581Z,5.82
2022-08-09T05:21:55.253Z,5.93
2022-08-09T05:24:24.823Z,5.93
2022-08-09T05:26:53.386Z,6.25
2022-08-09T05:29:24.460Z,5.70
2022-08-09T05:32:02.260Z,6.28
2022-08-09T05:34:33.077Z,5.82
2022-08-09T05:37:07.256Z,5.82
2022-08-09T05:39:42.523Z,5.80
2022-08-09T05:42:17.509Z,5.68
2022-08-09T05:44:54.201Z,5.75
2022-08-09T05:47:23.220Z,6.07
2022-08-09T05:50:26.836Z,5.60
2022-08-09T05:52:53.659Z,5.80
2022-08-09T05:55:23.971Z,5.43
2022-08-09T05:57:56.829Z,5.30
2022-08-09T06:00:30.370Z,5.55
2022-08-09T06:02:59.501Z,5.47
2022-08-09T06:05:49.690Z,5.30
2022-08-09T06:08:19.491Z,5.65
2022-08-09T06:10:55.750Z,5.80
2022-08-09T06:13:24.152Z,5.75
2022-08-09T06:15:52.674Z,5.20
2022-08-09T06:18:24.922Z,5.60
2022-08-09T06:20:57.298Z,5.65
2022-08-09T06:23:58.299Z,5.80
2022-08-09T06:26:21.241Z,5.60
2022-08-09T06:29:00.259Z,5.80
2022-08-09T06:31:39.243Z,5.10
2022-08-09T06:34:17.836Z,5.53
2022-08-09T06:36:46.463Z,5.75
2022-08-09T06:39:14.778Z,5.40
2022-08-09T06:42:07.957Z,5.43
2022-08-09T06:44:31.753Z,5.40
2022-08-09T06:46:58.980Z,5.40
2022-08-09T06:49:44.487Z,5.93
2022-08-09T06:52:15.655Z,5.57
2022-08-09T06:54:43.871Z,5.25
2022-08-09T06:57:12.156Z,5.57
2022-08-09T07:00:52.617Z,5.80
2022-08-09T07:02:32.847Z,6.18
2022-08-09T07:05:01.178Z,6.13
2022-08-09T07:07:59.407Z,5.97
2022-08-09T07:10:24.025Z,5.82
2022-08-09T07:12:58.262Z,5.78
2022-08-09T07:16:38.830Z,6.13
2022-08-09T07:18:14.182Z,5.80
2022-08-09T07:20:43.698Z,5.60
2022-08-09T07:23:18.467Z,5.70
2022-08-09T07:26:02.366Z,6.10
2022-08-09T07:28:34.639Z,5.75
2022-08-09T07:31:05.041Z,6.00
2022-08-09T07:33:52.754Z,6.10
2022-08-09T07:36:20.928Z,6.20
2022-08-09T07:38:56.770Z,5.95
2022-08-09T07:41:33.133Z,5.80
2022-08-09T07:44:06.248Z,6.32
2022-08-09T07:46:34.280Z,6.00
2022-08-09T07:49:04.878Z,5.93
2022-08-09T07:52:05.255Z,5.82
2022-08-09T07:54:27.889Z,5.75
2022-08-09T07:56:55.735Z,6.30
2022-08-09T07:59:33.786Z,6.20
2022-08-09T08:02:03.184Z,5.32
2022-08-09T08:04:32.930Z,6.43
2022-08-09T08:07:15.319Z,6.28
2022-08-09T08:10:04.532Z,6.93
2022-08-09T08:12:43.193Z,6.35
2022-08-09T08:15:16.956Z,6.70
2022-08-09T08:17:55.208Z,6.23
2022-08-09T08:20:28.917Z,6.40
2022-08-09T08:23:03.630Z,7.10
2022-08-09T08:25:46.312Z,6.75
2022-08-09T08:28:18.418Z,6.50
2022-08-09T08:30:53.869Z,7.47
2022-08-09T08:33:24.291Z,7.80
2022-08-09T08:36:00.085Z,8.02
2022-08-09T08:38:29.921Z,7.97
2022-08-09T08:40:58.388Z,7.75
2022-08-09T08:43:27.698Z,8.27
2022-08-09T08:46:10.093Z,8.65
2022-08-09T08:48:51.579Z,9.15
2022-08-09T08:51:22.833Z,8.88
2022-08-09T08:54:03.379Z,8.10
2022-08-09T08:56:39.724Z,8.30
2022-08-09T08:59:19.101Z,7.75
2022-08-09T09:01:52.736Z,7.55
2022-08-09T09:04:28.951Z,7.65
2022-08-09T09:06:58.872Z,7.47
2022-08-09T09:09:58.130Z,7.20
2022-08-09T09:12:20.680Z,6.65
2022-08-09T09:14:50.477Z,6.13
2022-08-09T09:17:20.971Z,6.10
2022-08-09T09:19:48.348Z,6.70
2022-08-09T09:22:26.914Z,6.32
2022-08-09T09:26:04.363Z,6.00
2022-08-09T09:28:03.641Z,5.72
2022-08-09T09:30:41.968Z,5.90
2022-08-09T09:33:15.683Z,5.00
2022-08-09T09:36:01.329Z,5.50
2022-08-09T09:38:41.479Z,4.53
2022-08-09T09:41:11.469Z,4.60
2022-08-09T09:43:41.481Z,4.30
2022-08-09T09:46:43.516Z,4.07
2022-08-09T09:49:32.082Z,3.88
2022-08-09T09:52:33.519Z,3.50
2022-08-09T09:55:27.851Z,3.97
2022-08-09T09:58:19.103Z,3.50
2022-08-09T10:00:58.370Z,3.70
2022-08-09T10:04:03.280Z,3.63
2022-08-09T10:06:42.965Z,3.90
2022-08-09T10:09:22.865Z,3.45
2022-08-09T10:12:14.423Z,3.38
2022-08-09T10:14:51.746Z,3.40
2022-08-09T10:17:39.427Z,3.50
2022-08-09T10:20:27.239Z,3.80
2022-08-09T10:23:17.321Z,3.30
2022-08-09T10:26:04.420Z,3.22
2022-08-09T10:28:37.399Z,3.30
2022-08-09T10:32:27.774Z,3.47
2022-08-09T10:34:10.301Z,3.20
2022-08-09T10:36:42.039Z,2.92
2022-08-09T10:39:15.893Z,3.17
2022-08-09T10:41:48.285Z,3.05
2022-08-09T10:44:25.681Z,3.05
2022-08-09T10:47:03.835Z,3.10
2022-08-09T10:49:54.369Z,3.70
2022-08-09T10:52:48.955Z,3.45
2022-08-09T10:55:27.627Z,3.08
2022-08-09T10:57:59.932Z,3.15
2022-08-09T11:01:10.799Z,3.33
2022-08-09T11:03:51.451Z,2.80
2022-08-09T11:06:24.334Z,3.00
2022-08-09T11:08:53.296Z,2.80
2022-08-09T11:11:23.433Z,2.78
2022-08-09T11:14:28.947Z,3.10
2022-08-09T11:17:00.023Z,2.70
2022-08-09T11:20:11.182Z,2.40
2022-08-09T11:22:45.552Z,2.55
2022-08-09T11:25:26.018Z,3.00
2022-08-09T11:28:38.384Z,2.63
2022-08-09T11:31:50.285Z,2.67
2022-08-09T11:34:33.789Z,2.70
2022-08-09T11:37:03.655Z,2.88
2022-08-09T11:40:01.752Z,3.00
2022-08-09T11:42:48.497Z,2.50
2022-08-09T11:45:42.597Z,2.90
2022-08-09T11:48:24.922Z,2.80
2022-08-09T11:52:57.022Z,3.10
2022-08-09T11:53:59.282Z,2.70
2022-08-09T11:56:41.977Z,2.90
2022-08-09T11:59:12.378Z,2.67
2022-08-09T12:02:17.044Z,2.55
2022-08-09T12:04:37.949Z,2.70
2022-08-09T12:07:07.904Z,2.83
2022-08-09T12:09:36.674Z,2.90
2022-08-09T12:12:20.204Z,2.90
2022-08-09T12:15:08.519Z,2.53
2022-08-09T12:17:43.239Z,3.05
2022-08-09T12:20:21.406Z,2.80
2022-08-09T12:23:04.638Z,3.00
2022-08-09T12:25:37.322Z,2.90
2022-08-09T12:28:59.794Z,2.80
2022-08-09T12:31:10.812Z,3.33
2022-08-09T12:33:59.357Z,2.70
2022-08-09T12:36:32.204Z,2.75
2022-08-09T12:39:02.297Z,2.85
2022-08-09T12:41:38.226Z,2.85
2022-08-09T12:44:12.679Z,2.80
2022-08-09T12:46:48.823Z,2.60
2022-08-09T12:49:18.522Z,2.90
2022-08-09T12:52:02.752Z,2.90
2022-08-09T12:56:10.831Z,2.40
2022-08-09T12:57:46.267Z,2.85
2022-08-09T13:00:26.134Z,2.67
2022-08-09T13:02:57.378Z,2.78
2022-08-09T13:05:26.743Z,2.95
2022-08-09T13:08:39.756Z,3.25
2022-08-09T13:14:41.500Z,2.80
2022-08-09T13:16:44.851Z,2.90
2022-08-09T13:20:08.741Z,2.80
2022-08-09T13:22:45.538Z,2.42
2022-08-09T13:25:14.166Z,2.65
2022-08-09T13:27:48.748Z,2.40
2022-08-09T13:30:48.925Z,2.50
2022-08-09T13:33:21.534Z,2.58
2022-08-09T13:36:24.313Z,2.70
2022-08-09T13:38:54.909Z,2.42
2022-08-09T13:41:58.410Z,2.50
2022-08-09T13:44:13.689Z,2.55
2022-08-09T13:47:29.163Z,2.42
2022-08-09T13:49:56.480Z,2.50
2022-08-09T13:52:25.031Z,2.53
2022-08-09T13:54:59.138Z,2.60
2022-08-09T13:57:36.764Z,2.60
2022-08-09T14:00:18.772Z,2.60
2022-08-09T14:03:04.462Z,2.47
2022-08-09T14:05:59.860Z,2.47
2022-08-09T14:08:28.381Z,2.40
2022-08-09T14:10:57.130Z,2.25
2022-08-09T14:14:16.104Z,2.30
2022-08-09T14:16:18.534Z,2.20
2022-08-09T14:21:23.064Z,2.22
2022-08-09T14:23:53.877Z,2.67
2022-08-09T14:26:30.059Z,2.78
2022-08-09T14:29:01.571Z,2.40
2022-08-09T14:31:35.850Z,2.58
2022-08-09T14:34:17.535Z,2.50
2022-08-09T14:36:55.098Z,2.33
2022-08-09T14:39:45.917Z,2.35
2022-08-09T14:42:10.083Z,2.28
2022-08-09T14:44:48.402Z,2.58
2022-08-09T14:47:45.328Z,2.55
2022-08-09T14:50:16.020Z,2.55
2022-08-09T14:52:43.946Z,2.58
2022-08-09T14:55:20.189Z,2.70
2022-08-09T14:57:49.329Z,2.60
2022-08-09T15:00:18.194Z,2.55
2022-08-09T15:02:47.360Z,2.80
2022-08-09T15:05:16.909Z,2.80
2022-08-09T15:07:45.406Z,2.70
2022-08-09T15:10:24.737Z,2.80
2022-08-09T15:12:56.025Z,2.78
2022-08-09T15:15:24.401Z,2.80
2022-08-09T15:17:56.716Z,2.42
2022-08-09T15:21:56.591Z,2.80
2022-08-09T15:24:00.874Z,2.60
2022-08-09T15:26:02.273Z,2.90
2022-08-09T15:28:33.358Z,3.00
2022-08-09T15:31:14.602Z,2.83
2022-08-09T15:34:31.131Z,2.95
2022-08-09T15:36:33.344Z,3.10
2022-08-09T15:39:01.117Z,3.17
2022-08-09T15:41:31.743Z,3.00
2022-08-09T15:44:02.268Z,3.00
2022-08-09T15:46:34.159Z,2.80
2022-08-09T15:49:23.010Z,2.83
2022-08-09T15:52:02.676Z,3.00
2022-08-09T15:54:49.161Z,2.90
2022-08-09T15:57:35.099Z,2.88
2022-08-09T16:00:17.011Z,3.22
2022-08-09T16:02:53.517Z,3.10
2022-08-09T16:05:26.882Z,3.10
2022-08-09T16:08:15.242Z,3.47
2022-08-09T16:10:57.760Z,3.40
2022-08-09T16:14:06.304Z,3.10
2022-08-09T16:16:17.414Z,3.30
2022-08-09T16:18:47.343Z,3.22
2022-08-09T16:21:17.817Z,3.60
2022-08-09T16:23:58.692Z,3.75
2022-08-09T16:26:34.901Z,3.63
2022-08-09T16:29:12.635Z,3.40
2022-08-09T16:32:17.965Z,4.53
2022-08-09T16:34:54.721Z,3.58
2022-08-09T16:37:17.587Z,4.25
2022-08-09T16:39:54.563Z,4.38
2022-08-09T16:42:31.034Z,4.30
2022-08-09T16:44:58.182Z,3.90
2022-08-09T16:48:38.944Z,4.30
2022-08-09T16:50:30.074Z,4.35
2022-08-09T16:53:02.098Z,4.05
2022-08-09T16:55:31.580Z,4.40
2022-08-09T16:58:14.464Z,3.90
2022-08-09T17:00:46.655Z,4.78
2022-08-09T17:03:22.322Z,4.80
2022-08-09T17:06:08.998Z,4.82
2022-08-09T17:09:02.983Z,5.22
2022-08-09T17:11:40.870Z,4.90
2022-08-09T17:14:25.606Z,5.28
2022-08-09T17:17:01.825Z,5.10
2022-08-09T17:19:47.185Z,5.10
2022-08-09T17:22:23.803Z,4.65
2022-08-09T17:25:02.596Z,5.45
2022-08-09T17:27:38.202Z,4.40
2022-08-09T17:30:12.888Z,4.00
2022-08-09T17:32:45.234Z,4.13
2022-08-09T17:35:14.713Z,4.30
2022-08-09T17:38:12.053Z,4.63
2022-08-09T17:40:33.401Z,4.30
2022-08-09T17:43:32.819Z,4.20
2022-08-09T17:46:04.145Z,4.03
2022-08-09T17:48:52.169Z,4.22
2022-08-09T17:51:21.703Z,4.18
2022-08-09T17:53:51.841Z,4.22
2022-08-09T17:56:22.207Z,3.80
2022-08-09T17:59:11.407Z,3.80
2022-08-09T18:04:27.939Z,3.80
2022-08-09T18:06:55.854Z,3.72
2022-08-09T18:09:41.056Z,3.78
2022-08-09T18:12:15.239Z,3.92
2022-08-09T18:14:53.474Z,3.83
2022-08-09T18:18:00.787Z,4.00
2022-08-09T18:20:55.133Z,3.80
2022-08-09T18:22:57.133Z,3.80
2022-08-09T18:25:52.517Z,4.00
2022-08-09T18:30:34.144Z,3.70
2022-08-09T18:31:01.717Z,4.20
2022-08-09T18:34:24.408Z,3.63
2022-08-09T18:36:53.503Z,3.80
2022-08-09T18:39:22.538Z,3.75
2022-08-09T18:41:53.070Z,3.72
2022-08-09T18:44:27.214Z,4.05
2022-08-09T18:47:08.030Z,4.10
2022-08-09T18:49:46.321Z,3.58
2022-08-09T18:52:18.617Z,3.78
2022-08-09T18:54:53.475Z,3.78
2022-08-09T18:57:22.946Z,3.85
2022-08-09T18:59:57.399Z,3.97
2022-08-09T19:02:32.065Z,3.53
2022-08-09T19:05:04.390Z,3.80
2022-08-09T19:07:59.138Z,3.60
2022-08-09T19:10:36.926Z,3.80
2022-08-09T19:13:23.484Z,3.60
2022-08-09T19:15:58.628Z,3.85
2022-08-09T19:18:33.466Z,3.72
2022-08-09T19:21:09.544Z,3.45
2022-08-09T19:24:37.625Z,3.60
2022-08-09T19:26:31.815Z,3.58
2022-08-09T19:29:03.212Z,3.88
2022-08-09T19:31:45.154Z,3.97
2022-08-09T19:34:21.482Z,3.40
2022-08-09T19:36:52.439Z,3.65
2022-08-09T19:39:29.079Z,3.92
2022-08-09T19:42:09.130Z,3.97
2022-08-09T19:44:42.032Z,3.90
2022-08-09T19:47:09.431Z,3.85
2022-08-09T19:50:09.569Z,3.72
2022-08-09T19:52:27.489Z,3.60
2022-08-09T19:54:55.760Z,3.50
2022-08-09T19:57:23.044Z,3.50
2022-08-09T19:59:59.970Z,3.78
2022-08-09T20:05:25.338Z,3.72
2022-08-09T20:08:00.195Z,3.47
2022-08-09T20:10:37.078Z,3.72
2022-08-09T20:13:07.071Z,3.65
2022-08-09T20:16:33.754Z,3.83
2022-08-09T20:18:27.811Z,3.90
2022-08-09T20:20:57.356Z,3.50
2022-08-09T20:23:39.098Z,3.75
2022-08-09T20:26:10.213Z,3.80
2022-08-09T20:28:48.679Z,3.77
2022-08-09T20:31:18.236Z,3.90
2022-08-09T20:33:46.815Z,3.90
2022-08-09T20:36:20.176Z,4.05
2022-08-09T20:41:37.495Z,4.28
2022-08-09T20:44:10.047Z,3.90
2022-08-09T20:46:43.118Z,3.95
2022-08-09T20:49:13.769Z,4.22
2022-08-09T20:51:42.085Z,4.10
2022-08-09T20:54:16.452Z,4.25
2022-08-09T20:56:49.720Z,3.95
2022-08-09T20:59:49.939Z,4.22
2022-08-09T21:02:17.390Z,4.28
2022-08-09T21:05:52.968Z,4.22
2022-08-09T21:07:40.463Z,4.45
2022-08-09T21:10:11.523Z,4.30
2022-08-09T21:12:39.322Z,4.32
2022-08-09T21:15:10.874Z,4.38
2022-08-09T21:20:30.045Z,4.60
2022-08-09T21:22:59.560Z,4.13
2022-08-09T21:25:56.381Z,4.10
2022-08-09T21:28:36.091Z,3.92
2022-08-09T21:31:16.441Z,4.60
2022-08-09T21:34:12.691Z,4.43
2022-08-09T21:36:45.868Z,4.13
2022-08-09T21:39:28.284Z,4.18
2022-08-09T21:42:10.897Z,4.38
2022-08-09T21:44:41.115Z,4.50
2022-08-09T21:47:11.445Z,4.53
2022-08-09T21:49:45.558Z,4.20
2022-08-09T21:52:17.450Z,4.30
2022-08-09T21:54:49.464Z,3.80
2022-08-09T21:57:37.377Z,4.03
2022-08-09T22:00:26.016Z,4.25
2022-08-09T22:02:58.962Z,3.90
2022-08-09T22:05:35.998Z,3.85
2022-08-09T22:08:12.952Z,4.20
2022-08-09T22:11:01.139Z,4.10
2022-08-09T22:13:35.484Z,3.90
2022-08-09T22:16:08.686Z,4.18
2022-08-09T22:18:52.923Z,4.05
2022-08-09T22:21:25.113Z,4.40
2022-08-09T22:24:17.067Z,4.15
2022-08-09T22:26:51.760Z,4.15
2022-08-09T22:29:25.576Z,4.35
2022-08-09T22:31:57.848Z,4.00
2022-08-09T22:34:26.845Z,3.88
2022-08-09T22:36:56.064Z,4.30
2022-08-09T22:39:55.628Z,4.20
2022-08-09T22:42:21.483Z,3.88
2022-08-09T22:45:00.364Z,3.92
2022-08-09T22:48:16.513Z,3.65
2022-08-09T22:50:28.176Z,3.80
2022-08-09T22:52:58.331Z,3.90
2022-08-09T22:56:00.680Z,4.03
2022-08-09T22:58:20.427Z,3.85
2022-08-09T23:01:02.070Z,3.92
2022-08-09T23:04:03.576Z,3.95
2022-08-09T23:06:32.795Z,4.30
2022-08-09T23:09:07.284Z,4.60
2022-08-09T23:11:34.927Z,4.80
2022-08-09T23:14:03.771Z,5.28
2022-08-09T23:16:31.845Z,6.60
2022-08-09T23:18:59.186Z,6.47
2022-08-09T23:21:31.318Z,6.70
2022-08-09T23:24:05.513Z,6.47
2022-08-09T23:26:38.459Z,5.70
2022-08-09T23:29:07.180Z,6.22
2022-08-09T23:31:34.616Z,5.70
2022-08-09T23:34:02.723Z,5.50
2022-08-09T23:36:32.029Z,5.78
2022-08-09T23:38:59.454Z,5.55
2022-08-09T23:41:28.081Z,5.55
2022-08-09T23:44:01.807Z,5.30
2022-08-09T23:46:30.223Z,5.22
2022-08-09T23:48:59.200Z,4.88
2022-08-09T23:51:27.417Z,5.32
2022-08-09T23:54:03.020Z,4.93
2022-08-09T23:56:52.541Z,4.72
2022-08-09T23:59:23.681Z,5.00
